Terminal Aerodrome Forecast
Issued by NWS

Home | Current Version | Previous Version | Text Only | Print | Product List | Glossary On
Versions: 1 2 3 4 5 6 7 8 9 10 11 12 13 14
000
FTUS45 KRIW 302300
TAFWRL
TAF
KWRL 302324Z 0100/0124 34005KT P6SM VCSH SCT060 BKN090
     FM010400 34011KT P6SM VCSH OVC025
     FM011800 34007KT P6SM SCT040=

USA.gov is the U.S. government's official web portal to all federal, state and local government web resources and services.